createdAt,value
2022-10-11T00:00:39.302Z,994.1
2022-10-11T00:05:57.934Z,994.1
2022-10-11T00:11:16.428Z,994
2022-10-11T00:17:50.564Z,994.1
2022-10-11T00:21:56.279Z,994.1
2022-10-11T00:27:14.924Z,994.1
2022-10-11T00:32:33.807Z,994.2
2022-10-11T00:39:07.975Z,994.2
2022-10-11T00:48:31.800Z,994.2
2022-10-11T00:53:51.563Z,994.3
2022-10-11T00:59:10.363Z,994.4
2022-10-11T01:04:29.492Z,994.3
2022-10-11T01:09:48.669Z,994.3
2022-10-11T01:15:07.835Z,994.3
2022-10-11T01:23:40.835Z,994.5
2022-10-11T01:25:44.470Z,994.4
2022-10-11T01:32:43.028Z,994.5
2022-10-11T01:36:24.168Z,994.5
2022-10-11T01:44:57.266Z,994.5
2022-10-11T01:53:30.271Z,994.5
2022-10-11T01:57:40.056Z,994.5
2022-10-11T02:02:58.738Z,994.5
2022-10-11T02:08:17.396Z,994.6
2022-10-11T02:13:36.813Z,994.6
2022-10-11T02:18:54.971Z,994.7
2022-10-11T02:24:15.393Z,994.7
2022-10-11T02:29:34.200Z,994.7
2022-10-11T02:34:53.822Z,994.7
2022-10-11T02:40:12.029Z,994.7
2022-10-11T02:45:31.408Z,994.7
2022-10-11T02:50:50.906Z,994.7
2022-10-11T02:56:09.897Z,994.7
2022-10-11T03:01:28.479Z,994.6
2022-10-11T03:06:48.472Z,994.6
2022-10-11T03:12:07.034Z,994.6
2022-10-11T03:17:35.955Z,994.6
2022-10-11T03:22:45.933Z,994.7
2022-10-11T03:28:05.200Z,994.7
2022-10-11T03:33:25.053Z,994.8
2022-10-11T03:38:43.183Z,994.8
2022-10-11T03:44:03.499Z,994.8
2022-10-11T03:49:23.009Z,995
2022-10-11T03:54:41.658Z,995.1
2022-10-11T04:00:01.365Z,995.2
2022-10-11T04:05:20.158Z,995.3
2022-10-11T04:10:40.039Z,995.4
2022-10-11T04:15:58.966Z,995.4
2022-10-11T04:21:18.720Z,995.5
2022-10-11T04:26:38.310Z,995.4
2022-10-11T04:31:57.154Z,995.4
2022-10-11T04:37:15.987Z,995.5
2022-10-11T04:42:36.360Z,995.5
2022-10-11T04:47:54.932Z,995.6
2022-10-11T04:53:14.344Z,995.7
2022-10-11T04:58:33.880Z,995.7
2022-10-11T05:03:53.385Z,995.7
2022-10-11T05:09:11.464Z,995.7
2022-10-11T05:14:31.909Z,995.7
2022-10-11T05:19:49.924Z,995.8
2022-10-11T05:25:09.165Z,995.8
2022-10-11T05:30:28.404Z,995.9
2022-10-11T05:35:48.688Z,996
2022-10-11T05:41:07.196Z,996.1
2022-10-11T05:46:27.556Z,996.3
2022-10-11T05:51:46.187Z,996.3
2022-10-11T05:57:05.570Z,996.3
2022-10-11T06:02:25.944Z,996.4
2022-10-11T06:09:00.127Z,996.6
2022-10-11T06:18:24.656Z,996.6
2022-10-11T06:23:42.281Z,996.6
2022-10-11T06:29:01.755Z,996.7
2022-10-11T06:34:20.742Z,996.7
2022-10-11T06:39:39.298Z,996.8
2022-10-11T06:44:59.058Z,996.9
2022-10-11T06:50:30.065Z,996.9
2022-10-11T06:56:52.745Z,996.9
2022-10-11T07:00:56.827Z,997
2022-10-11T07:07:55.375Z,997.1
2022-10-11T07:11:36.794Z,997.1
2022-10-11T07:27:34.348Z,997.3
2022-10-11T07:32:53.567Z,997.4
2022-10-11T07:38:11.062Z,997.4
2022-10-11T07:43:30.719Z,997.4
2022-10-11T07:48:58.546Z,997.5
2022-10-11T07:54:09.300Z,997.5
2022-10-11T08:00:43.460Z,997.5
2022-10-11T08:04:48.719Z,997.5
2022-10-11T08:10:07.462Z,997.5
2022-10-11T08:16:41.610Z,997.6
2022-10-11T08:20:47.295Z,997.6
2022-10-11T08:26:07.405Z,997.6
2022-10-11T08:31:25.958Z,997.6
2022-10-11T08:39:59.018Z,997.7
2022-10-11T08:44:15.557Z,997.7
2022-10-11T08:52:42.938Z,997.7
2022-10-11T09:01:16.019Z,997.7
2022-10-11T09:09:49.047Z,997.7
2022-10-11T09:14:00.293Z,997.6
2022-10-11T09:22:33.394Z,997.6
2022-10-11T09:26:49.923Z,997.6
2022-10-11T09:35:16.834Z,997.6
2022-10-11T09:42:15.436Z,997.6
2022-10-11T09:45:56.879Z,997.7
2022-10-11T09:51:16.122Z,997.7
2022-10-11T09:51:44.038Z,997.7
2022-10-11T10:02:22.083Z,997.7
2022-10-11T10:13:00.409Z,997.8
2022-10-11T10:18:32.084Z,997.8
2022-10-11T10:26:53.130Z,997.8
2022-10-11T10:28:59.092Z,997.8
2022-10-11T10:39:47.827Z,997.8
2022-10-11T10:48:10.851Z,997.7
2022-10-11T10:56:43.936Z,997.7
2022-10-11T11:00:53.125Z,997.7
2022-10-11T11:07:51.721Z,997.7
2022-10-11T11:11:32.608Z,997.7
2022-10-11T11:16:52.096Z,997.6
2022-10-11T11:22:11.470Z,997.6
2022-10-11T11:27:39.597Z,997.6
2022-10-11T11:32:48.946Z,997.5
2022-10-11T11:38:07.744Z,997.5
2022-10-11T11:43:26.761Z,997.5
2022-10-11T11:48:46.060Z,997.5
2022-10-11T11:54:04.945Z,997.4
2022-10-11T12:00:28.924Z,997.4
2022-10-11T12:04:43.650Z,997.3
2022-10-11T12:10:02.538Z,997.3
2022-10-11T12:15:21.349Z,997.2
2022-10-11T12:20:39.035Z,997.2
2022-10-11T12:25:58.655Z,997.2
2022-10-11T12:31:18.051Z,997.2
2022-10-11T12:36:38.358Z,997.1
2022-10-11T12:41:57.251Z,997.1
2022-10-11T12:47:16.844Z,997.1
2022-10-11T12:52:36.148Z,997
2022-10-11T12:59:10.272Z,997
2022-10-11T13:03:31.176Z,997
2022-10-11T13:08:44.903Z,997
2022-10-11T13:13:53.825Z,997
2022-10-11T13:19:23.992Z,996.9
2022-10-11T13:24:31.711Z,996.9
2022-10-11T13:29:49.359Z,996.8
2022-10-11T13:35:08.044Z,996.9
2022-10-11T13:40:27.484Z,996.8
2022-10-11T13:45:46.819Z,996.8
2022-10-11T13:51:05.859Z,996.9
2022-10-11T13:56:24.863Z,996.8
2022-10-11T14:02:59.006Z,996.8
2022-10-11T14:07:04.966Z,996.9
2022-10-11T14:12:23.842Z,996.9
2022-10-11T14:17:42.866Z,996.9
2022-10-11T14:23:02.103Z,996.9
2022-10-11T14:28:21.793Z,996.9
2022-10-11T14:33:41.123Z,996.9
2022-10-11T14:39:00.529Z,996.9
2022-10-11T14:44:19.956Z,996.8
2022-10-11T14:49:38.954Z,996.8
2022-10-11T14:54:57.961Z,996.8
2022-10-11T15:00:17.010Z,996.8
2022-10-11T15:05:36.479Z,996.8
2022-10-11T15:10:55.435Z,996.9
2022-10-11T15:16:14.185Z,996.8
2022-10-11T15:24:51.461Z,996.9
2022-10-11T15:33:20.262Z,996.8
2022-10-11T15:37:31.708Z,996.8
2022-10-11T15:42:48.692Z,996.8
2022-10-11T15:48:07.989Z,996.8
2022-10-11T15:53:26.846Z,996.8
2022-10-11T15:58:46.170Z,996.8
2022-10-11T16:04:05.369Z,996.8
2022-10-11T16:09:24.290Z,996.8
2022-10-11T16:14:47.023Z,996.8
2022-10-11T16:20:03.237Z,996.7
2022-10-11T16:25:22.588Z,996.8
2022-10-11T16:30:42.289Z,996.8
2022-10-11T16:36:01.745Z,996.8
2022-10-11T16:41:19.403Z,996.8
2022-10-11T16:46:38.766Z,996.8
2022-10-11T16:53:12.905Z,996.9
2022-10-11T17:02:38.114Z,996.8
2022-10-11T17:07:56.955Z,996.9
2022-10-11T17:13:16.466Z,996.9
2022-10-11T17:18:35.870Z,996.9
2022-10-11T17:24:06.168Z,996.9
2022-10-11T17:29:14.809Z,997
2022-10-11T17:34:33.832Z,997
2022-10-11T17:39:53.233Z,997
2022-10-11T17:45:12.081Z,997
2022-10-11T17:50:31.141Z,997
2022-10-11T17:55:50.649Z,997
2022-10-11T18:04:23.745Z,997
2022-10-11T18:13:12.007Z,997.1
2022-10-11T18:22:28.297Z,997
2022-10-11T18:27:46.773Z,997
2022-10-11T18:33:05.854Z,997
2022-10-11T18:38:25.570Z,997
2022-10-11T18:43:44.533Z,997
2022-10-11T18:50:18.716Z,997
2022-10-11T18:54:24.574Z,996.9
2022-10-11T18:59:43.753Z,996.9
2022-10-11T19:05:02.710Z,997
2022-10-11T19:10:21.961Z,997
2022-10-11T19:19:07.034Z,997
2022-10-11T19:27:40.094Z,997
2022-10-11T19:31:44.641Z,997
2022-10-11T19:36:59.383Z,997
2022-10-11T19:42:18.265Z,997
2022-10-11T19:47:37.946Z,997
2022-10-11T19:52:56.708Z,996.9
2022-10-11T19:58:16.253Z,996.9
2022-10-11T20:06:49.307Z,997
2022-10-11T20:14:13.675Z,997
2022-10-11T20:19:31.810Z,997.1
2022-10-11T20:24:50.052Z,997.1
2022-10-11T20:30:09.606Z,997.1
2022-10-11T20:35:29.101Z,997.1
2022-10-11T20:40:48.208Z,997.1
2022-10-11T20:46:07.091Z,997.1
2022-10-11T20:51:26.136Z,997.1
2022-10-11T20:56:45.660Z,997.2
2022-10-11T21:02:04.712Z,997.2
2022-10-11T21:07:23.649Z,997.1
2022-10-11T21:12:42.959Z,997.1
2022-10-11T21:18:02.110Z,997.1
2022-10-11T21:23:21.080Z,997
2022-10-11T21:28:40.593Z,997
2022-10-11T21:33:59.321Z,997
2022-10-11T21:39:18.342Z,997
2022-10-11T21:45:52.498Z,997
2022-10-11T21:49:57.731Z,997
2022-10-11T21:58:30.748Z,997
2022-10-11T22:02:47.329Z,997.1
2022-10-11T22:05:55.914Z,997.1
2022-10-11T22:11:15.119Z,997.1
2022-10-11T22:16:34.584Z,997.1
2022-10-11T22:21:53.449Z,997.1
2022-10-11T22:27:12.723Z,997.1
2022-10-11T22:32:32.154Z,997
2022-10-11T22:37:51.177Z,997
2022-10-11T22:43:10.033Z,997
2022-10-11T22:48:29.504Z,997.1
2022-10-11T22:53:48.258Z,997
2022-10-11T22:59:07.116Z,996.9
2022-10-11T23:04:25.023Z,996.9
2022-10-11T23:09:44.599Z,996.9
2022-10-11T23:15:04.029Z,996.9
2022-10-11T23:20:23.643Z,996.9
2022-10-11T23:26:57.833Z,996.9
2022-10-11T23:31:14.346Z,997
2022-10-11T23:36:21.979Z,997
2022-10-11T23:41:41.217Z,996.9
2022-10-11T23:47:00.404Z,997
2022-10-11T23:52:19.412Z,997
2022-10-11T23:57:39.084Z,996.9
